<?xml version="1.0" encoding="UTF-8" standalone="no" ?>
<gpx xmlns="http://www.topografix.com/GPX/1/1" xmlns:xsi="http://www.w3.org/2001/XMLSchema-instance" xsi:schemaLocation="http://www.topografix.com/GPX/1/1 http://www.topografix.com/GPX/1/1/gpx.xsd" version="1.1" creator="VisuGPX - https://www.visugpx.com">
  <metadata>
    <name>2016-06-23 - Hartmannswillerkopf</name>
    <desc><![CDATA[2016-06-23 - Hartmannswillerkopf - Préparation de la randonnée du 20 juillet - Denis Vouin]]></desc>
  </metadata>
  <trk>
    <name><![CDATA[JUIN-23-16 17:47:36]]></name>
    <trkseg>
      <trkpt lat="47.84702" lon="7.16942">
        <ele>569.72</ele>
        <time>2016-06-23T06:27:47Z</time>
      </trkpt>
      <trkpt lat="47.84743" lon="7.1692">
        <ele>565.87</ele>
        <time>2016-06-23T06:31:27Z</time>
      </trkpt>
      <trkpt lat="47.84846" lon="7.16888">
        <ele>563.47</ele>
        <time>2016-06-23T06:33:02Z</time>
      </trkpt>
      <trkpt lat="47.84925" lon="7.16913">
        <ele>563.95</ele>
        <time>2016-06-23T06:33:56Z</time>
      </trkpt>
      <trkpt lat="47.85009" lon="7.16909">
        <ele>563.47</ele>
        <time>2016-06-23T06:35:12Z</time>
      </trkpt>
      <trkpt lat="47.85037" lon="7.16891">
        <ele>565.87</ele>
        <time>2016-06-23T06:37:02Z</time>
      </trkpt>
      <trkpt lat="47.8505" lon="7.1679">
        <ele>575.01</ele>
        <time>2016-06-23T06:37:58Z</time>
      </trkpt>
      <trkpt lat="47.85071" lon="7.16719">
        <ele>586.54</ele>
        <time>2016-06-23T06:39:11Z</time>
      </trkpt>
      <trkpt lat="47.85111" lon="7.1678">
        <ele>589.91</ele>
        <time>2016-06-23T06:41:28Z</time>
      </trkpt>
      <trkpt lat="47.85164" lon="7.16836">
        <ele>598.08</ele>
        <time>2016-06-23T06:42:23Z</time>
      </trkpt>
      <trkpt lat="47.85223" lon="7.16847">
        <ele>602.88</ele>
        <time>2016-06-23T06:43:20Z</time>
      </trkpt>
      <trkpt lat="47.85274" lon="7.16824">
        <ele>612.5</ele>
        <time>2016-06-23T06:44:48Z</time>
      </trkpt>
      <trkpt lat="47.85274" lon="7.16876">
        <ele>612.02</ele>
        <time>2016-06-23T06:46:27Z</time>
      </trkpt>
      <trkpt lat="47.85284" lon="7.16984">
        <ele>621.63</ele>
        <time>2016-06-23T06:47:32Z</time>
      </trkpt>
      <trkpt lat="47.85299" lon="7.1709">
        <ele>630.76</ele>
        <time>2016-06-23T06:48:26Z</time>
      </trkpt>
      <trkpt lat="47.85321" lon="7.17176">
        <ele>639.89</ele>
        <time>2016-06-23T06:49:35Z</time>
      </trkpt>
      <trkpt lat="47.85363" lon="7.1724">
        <ele>642.3</ele>
        <time>2016-06-23T06:50:25Z</time>
      </trkpt>
      <trkpt lat="47.85414" lon="7.17247">
        <ele>658.64</ele>
        <time>2016-06-23T06:51:58Z</time>
      </trkpt>
      <trkpt lat="47.85485" lon="7.17237">
        <ele>666.81</ele>
        <time>2016-06-23T06:56:02Z</time>
      </trkpt>
      <trkpt lat="47.85552" lon="7.17238">
        <ele>677.87</ele>
        <time>2016-06-23T06:57:28Z</time>
      </trkpt>
      <trkpt lat="47.85638" lon="7.17236">
        <ele>696.13</ele>
        <time>2016-06-23T06:59:12Z</time>
      </trkpt>
      <trkpt lat="47.85712" lon="7.17266">
        <ele>710.07</ele>
        <time>2016-06-23T07:00:49Z</time>
      </trkpt>
      <trkpt lat="47.85743" lon="7.17295">
        <ele>710.07</ele>
        <time>2016-06-23T07:02:41Z</time>
      </trkpt>
      <trkpt lat="47.8575" lon="7.17404">
        <ele>694.69</ele>
        <time>2016-06-23T07:04:08Z</time>
      </trkpt>
      <trkpt lat="47.85794" lon="7.17558">
        <ele>682.19</ele>
        <time>2016-06-23T07:05:58Z</time>
      </trkpt>
      <trkpt lat="47.85831" lon="7.17647">
        <ele>677.87</ele>
        <time>2016-06-23T07:08:12Z</time>
      </trkpt>
      <trkpt lat="47.85817" lon="7.17621">
        <ele>678.35</ele>
        <time>2016-06-23T07:09:10Z</time>
      </trkpt>
      <trkpt lat="47.85837" lon="7.17593">
        <ele>679.31</ele>
        <time>2016-06-23T07:10:01Z</time>
      </trkpt>
      <trkpt lat="47.85839" lon="7.17574">
        <ele>677.39</ele>
        <time>2016-06-23T07:10:16Z</time>
      </trkpt>
      <trkpt lat="47.85824" lon="7.17634">
        <ele>679.31</ele>
        <time>2016-06-23T07:10:21Z</time>
      </trkpt>
      <trkpt lat="47.85832" lon="7.17642">
        <ele>667.29</ele>
        <time>2016-06-23T07:12:40Z</time>
      </trkpt>
      <trkpt lat="47.85818" lon="7.17648">
        <ele>674.5</ele>
        <time>2016-06-23T07:46:29Z</time>
      </trkpt>
      <trkpt lat="47.85897" lon="7.17672">
        <ele>669.22</ele>
        <time>2016-06-23T07:47:37Z</time>
      </trkpt>
      <trkpt lat="47.85874" lon="7.17687">
        <ele>662.49</ele>
        <time>2016-06-23T07:48:24Z</time>
      </trkpt>
      <trkpt lat="47.85838" lon="7.17683">
        <ele>657.2</ele>
        <time>2016-06-23T07:51:11Z</time>
      </trkpt>
      <trkpt lat="47.85789" lon="7.17694">
        <ele>649.99</ele>
        <time>2016-06-23T07:51:50Z</time>
      </trkpt>
      <trkpt lat="47.85741" lon="7.17722">
        <ele>643.74</ele>
        <time>2016-06-23T07:52:37Z</time>
      </trkpt>
      <trkpt lat="47.8569" lon="7.17704">
        <ele>637.49</ele>
        <time>2016-06-23T07:53:23Z</time>
      </trkpt>
      <trkpt lat="47.85633" lon="7.17653">
        <ele>630.76</ele>
        <time>2016-06-23T07:54:13Z</time>
      </trkpt>
      <trkpt lat="47.85599" lon="7.17576">
        <ele>623.07</ele>
        <time>2016-06-23T07:55:04Z</time>
      </trkpt>
      <trkpt lat="47.85568" lon="7.17486">
        <ele>615.38</ele>
        <time>2016-06-23T07:56:14Z</time>
      </trkpt>
      <trkpt lat="47.85503" lon="7.17431">
        <ele>606.25</ele>
        <time>2016-06-23T07:57:24Z</time>
      </trkpt>
      <trkpt lat="47.85435" lon="7.17439">
        <ele>598.08</ele>
        <time>2016-06-23T07:58:33Z</time>
      </trkpt>
      <trkpt lat="47.85376" lon="7.17471">
        <ele>592.31</ele>
        <time>2016-06-23T07:59:20Z</time>
      </trkpt>
      <trkpt lat="47.85313" lon="7.17486">
        <ele>587.98</ele>
        <time>2016-06-23T08:00:25Z</time>
      </trkpt>
      <trkpt lat="47.85269" lon="7.1738">
        <ele>603.36</ele>
        <time>2016-06-23T08:01:58Z</time>
      </trkpt>
      <trkpt lat="47.8527" lon="7.17308">
        <ele>610.09</ele>
        <time>2016-06-23T08:04:29Z</time>
      </trkpt>
      <trkpt lat="47.85232" lon="7.17355">
        <ele>604.33</ele>
        <time>2016-06-23T08:05:28Z</time>
      </trkpt>
      <trkpt lat="47.85198" lon="7.17435">
        <ele>598.56</ele>
        <time>2016-06-23T08:06:20Z</time>
      </trkpt>
      <trkpt lat="47.85163" lon="7.17537">
        <ele>587.5</ele>
        <time>2016-06-23T08:07:22Z</time>
      </trkpt>
      <trkpt lat="47.85123" lon="7.17486">
        <ele>572.6</ele>
        <time>2016-06-23T08:08:23Z</time>
      </trkpt>
      <trkpt lat="47.85081" lon="7.17402">
        <ele>557.22</ele>
        <time>2016-06-23T08:09:21Z</time>
      </trkpt>
      <trkpt lat="47.85051" lon="7.17332">
        <ele>547.61</ele>
        <time>2016-06-23T08:10:08Z</time>
      </trkpt>
      <trkpt lat="47.85016" lon="7.1726">
        <ele>538.48</ele>
        <time>2016-06-23T08:10:57Z</time>
      </trkpt>
      <trkpt lat="47.84977" lon="7.17195">
        <ele>526.94</ele>
        <time>2016-06-23T08:11:50Z</time>
      </trkpt>
      <trkpt lat="47.84987" lon="7.17111">
        <ele>532.71</ele>
        <time>2016-06-23T08:12:50Z</time>
      </trkpt>
      <trkpt lat="47.85002" lon="7.17027">
        <ele>541.36</ele>
        <time>2016-06-23T08:13:43Z</time>
      </trkpt>
      <trkpt lat="47.85038" lon="7.16874">
        <ele>554.82</ele>
        <time>2016-06-23T08:15:30Z</time>
      </trkpt>
      <trkpt lat="47.85058" lon="7.16791">
        <ele>564.91</ele>
        <time>2016-06-23T08:16:23Z</time>
      </trkpt>
      <trkpt lat="47.85077" lon="7.16719">
        <ele>573.56</ele>
        <time>2016-06-23T08:17:35Z</time>
      </trkpt>
      <trkpt lat="47.85119" lon="7.16786">
        <ele>582.22</ele>
        <time>2016-06-23T08:18:34Z</time>
      </trkpt>
      <trkpt lat="47.85175" lon="7.16827">
        <ele>587.5</ele>
        <time>2016-06-23T08:19:29Z</time>
      </trkpt>
      <trkpt lat="47.85241" lon="7.16845">
        <ele>595.67</ele>
        <time>2016-06-23T08:20:35Z</time>
      </trkpt>
      <trkpt lat="47.8529" lon="7.16806">
        <ele>610.57</ele>
        <time>2016-06-23T08:22:17Z</time>
      </trkpt>
      <trkpt lat="47.8525" lon="7.16767">
        <ele>618.75</ele>
        <time>2016-06-23T08:23:36Z</time>
      </trkpt>
      <trkpt lat="47.85277" lon="7.16745">
        <ele>634.13</ele>
        <time>2016-06-23T08:25:15Z</time>
      </trkpt>
      <trkpt lat="47.8531" lon="7.16712">
        <ele>645.18</ele>
        <time>2016-06-23T08:28:24Z</time>
      </trkpt>
      <trkpt lat="47.85326" lon="7.16634">
        <ele>670.66</ele>
        <time>2016-06-23T08:30:57Z</time>
      </trkpt>
      <trkpt lat="47.85352" lon="7.16588">
        <ele>690.84</ele>
        <time>2016-06-23T08:32:59Z</time>
      </trkpt>
      <trkpt lat="47.85369" lon="7.16536">
        <ele>706.23</ele>
        <time>2016-06-23T08:35:15Z</time>
      </trkpt>
      <trkpt lat="47.85412" lon="7.16504">
        <ele>727.37</ele>
        <time>2016-06-23T08:38:39Z</time>
      </trkpt>
      <trkpt lat="47.85455" lon="7.16457">
        <ele>747.08</ele>
        <time>2016-06-23T08:43:00Z</time>
      </trkpt>
      <trkpt lat="47.8547" lon="7.16415">
        <ele>754.77</ele>
        <time>2016-06-23T08:45:45Z</time>
      </trkpt>
      <trkpt lat="47.85472" lon="7.16378">
        <ele>770.15</ele>
        <time>2016-06-23T09:13:42Z</time>
      </trkpt>
      <trkpt lat="47.85538" lon="7.16354">
        <ele>785.53</ele>
        <time>2016-06-23T09:15:51Z</time>
      </trkpt>
      <trkpt lat="47.8562" lon="7.1634">
        <ele>789.38</ele>
        <time>2016-06-23T09:17:49Z</time>
      </trkpt>
      <trkpt lat="47.85683" lon="7.16446">
        <ele>796.59</ele>
        <time>2016-06-23T09:19:15Z</time>
      </trkpt>
      <trkpt lat="47.85715" lon="7.16445">
        <ele>810.53</ele>
        <time>2016-06-23T09:21:43Z</time>
      </trkpt>
      <trkpt lat="47.85758" lon="7.16383">
        <ele>835.04</ele>
        <time>2016-06-23T09:24:54Z</time>
      </trkpt>
      <trkpt lat="47.85792" lon="7.16328">
        <ele>864.36</ele>
        <time>2016-06-23T09:28:19Z</time>
      </trkpt>
      <trkpt lat="47.85836" lon="7.16328">
        <ele>883.59</ele>
        <time>2016-06-23T09:34:01Z</time>
      </trkpt>
      <trkpt lat="47.85882" lon="7.16349">
        <ele>904.26</ele>
        <time>2016-06-23T09:36:11Z</time>
      </trkpt>
      <trkpt lat="47.85931" lon="7.16356">
        <ele>918.68</ele>
        <time>2016-06-23T09:38:51Z</time>
      </trkpt>
      <trkpt lat="47.85952" lon="7.16422">
        <ele>921.56</ele>
        <time>2016-06-23T09:40:14Z</time>
      </trkpt>
      <trkpt lat="47.85963" lon="7.16486">
        <ele>922.52</ele>
        <time>2016-06-23T09:41:41Z</time>
      </trkpt>
      <trkpt lat="47.85949" lon="7.16544">
        <ele>917.72</ele>
        <time>2016-06-23T09:43:01Z</time>
      </trkpt>
      <trkpt lat="47.85961" lon="7.16563">
        <ele>924.45</ele>
        <time>2016-06-23T09:45:38Z</time>
      </trkpt>
      <trkpt lat="47.85976" lon="7.16549">
        <ele>917.24</ele>
        <time>2016-06-23T09:50:36Z</time>
      </trkpt>
      <trkpt lat="47.85961" lon="7.16536">
        <ele>923</ele>
        <time>2016-06-23T09:52:25Z</time>
      </trkpt>
      <trkpt lat="47.85981" lon="7.16475">
        <ele>922.52</ele>
        <time>2016-06-23T09:53:51Z</time>
      </trkpt>
      <trkpt lat="47.85996" lon="7.16406">
        <ele>924.45</ele>
        <time>2016-06-23T09:54:59Z</time>
      </trkpt>
      <trkpt lat="47.85987" lon="7.16346">
        <ele>932.14</ele>
        <time>2016-06-23T09:56:42Z</time>
      </trkpt>
      <trkpt lat="47.85996" lon="7.16312">
        <ele>933.58</ele>
        <time>2016-06-23T09:57:51Z</time>
      </trkpt>
      <trkpt lat="47.86026" lon="7.16257">
        <ele>942.23</ele>
        <time>2016-06-23T09:58:46Z</time>
      </trkpt>
      <trkpt lat="47.86056" lon="7.16202">
        <ele>943.67</ele>
        <time>2016-06-23T09:59:46Z</time>
      </trkpt>
      <trkpt lat="47.86073" lon="7.16164">
        <ele>956.17</ele>
        <time>2016-06-23T10:34:22Z</time>
      </trkpt>
      <trkpt lat="47.86078" lon="7.16098">
        <ele>959.05</ele>
        <time>2016-06-23T10:35:31Z</time>
      </trkpt>
      <trkpt lat="47.86061" lon="7.16018">
        <ele>949.92</ele>
        <time>2016-06-23T10:36:47Z</time>
      </trkpt>
      <trkpt lat="47.86036" lon="7.15932">
        <ele>940.31</ele>
        <time>2016-06-23T10:37:43Z</time>
      </trkpt>
      <trkpt lat="47.86042" lon="7.15861">
        <ele>935.5</ele>
        <time>2016-06-23T10:38:42Z</time>
      </trkpt>
      <trkpt lat="47.86067" lon="7.15788">
        <ele>929.25</ele>
        <time>2016-06-23T10:39:34Z</time>
      </trkpt>
      <trkpt lat="47.86113" lon="7.15766">
        <ele>930.69</ele>
        <time>2016-06-23T10:41:09Z</time>
      </trkpt>
      <trkpt lat="47.86152" lon="7.15731">
        <ele>919.16</ele>
        <time>2016-06-23T10:42:26Z</time>
      </trkpt>
      <trkpt lat="47.86178" lon="7.15775">
        <ele>907.62</ele>
        <time>2016-06-23T10:43:21Z</time>
      </trkpt>
      <trkpt lat="47.86208" lon="7.15775">
        <ele>893.2</ele>
        <time>2016-06-23T10:44:29Z</time>
      </trkpt>
      <trkpt lat="47.86266" lon="7.15796">
        <ele>879.26</ele>
        <time>2016-06-23T10:45:37Z</time>
      </trkpt>
      <trkpt lat="47.86294" lon="7.15855">
        <ele>875.9</ele>
        <time>2016-06-23T10:46:42Z</time>
      </trkpt>
      <trkpt lat="47.86286" lon="7.1594">
        <ele>883.59</ele>
        <time>2016-06-23T10:48:05Z</time>
      </trkpt>
      <trkpt lat="47.86302" lon="7.16022">
        <ele>877.34</ele>
        <time>2016-06-23T10:49:06Z</time>
      </trkpt>
      <trkpt lat="47.86316" lon="7.16115">
        <ele>880.71</ele>
        <time>2016-06-23T10:50:11Z</time>
      </trkpt>
      <trkpt lat="47.86329" lon="7.16201">
        <ele>882.63</ele>
        <time>2016-06-23T10:51:25Z</time>
      </trkpt>
      <trkpt lat="47.86387" lon="7.16246">
        <ele>856.19</ele>
        <time>2016-06-23T10:53:07Z</time>
      </trkpt>
      <trkpt lat="47.86409" lon="7.16273">
        <ele>849.94</ele>
        <time>2016-06-23T10:59:33Z</time>
      </trkpt>
      <trkpt lat="47.86394" lon="7.16209">
        <ele>862.92</ele>
        <time>2016-06-23T11:03:06Z</time>
      </trkpt>
      <trkpt lat="47.86359" lon="7.16222">
        <ele>875.9</ele>
        <time>2016-06-23T11:04:55Z</time>
      </trkpt>
      <trkpt lat="47.86323" lon="7.16161">
        <ele>882.15</ele>
        <time>2016-06-23T11:06:35Z</time>
      </trkpt>
      <trkpt lat="47.86314" lon="7.16075">
        <ele>876.86</ele>
        <time>2016-06-23T11:07:39Z</time>
      </trkpt>
      <trkpt lat="47.86296" lon="7.16002">
        <ele>879.74</ele>
        <time>2016-06-23T11:08:41Z</time>
      </trkpt>
      <trkpt lat="47.86286" lon="7.15918">
        <ele>884.55</ele>
        <time>2016-06-23T11:09:48Z</time>
      </trkpt>
      <trkpt lat="47.863" lon="7.15836">
        <ele>873.98</ele>
        <time>2016-06-23T11:10:47Z</time>
      </trkpt>
      <trkpt lat="47.86322" lon="7.15784">
        <ele>865.8</ele>
        <time>2016-06-23T11:12:12Z</time>
      </trkpt>
      <trkpt lat="47.86366" lon="7.15737">
        <ele>844.66</ele>
        <time>2016-06-23T11:13:44Z</time>
      </trkpt>
      <trkpt lat="47.86413" lon="7.15716">
        <ele>823.51</ele>
        <time>2016-06-23T11:16:02Z</time>
      </trkpt>
      <trkpt lat="47.86459" lon="7.15697">
        <ele>810.05</ele>
        <time>2016-06-23T11:17:42Z</time>
      </trkpt>
      <trkpt lat="47.86519" lon="7.15703">
        <ele>770.63</ele>
        <time>2016-06-23T11:20:49Z</time>
      </trkpt>
      <trkpt lat="47.86566" lon="7.1566">
        <ele>748.52</ele>
        <time>2016-06-23T11:22:49Z</time>
      </trkpt>
      <trkpt lat="47.86602" lon="7.15675">
        <ele>728.82</ele>
        <time>2016-06-23T11:24:48Z</time>
      </trkpt>
      <trkpt lat="47.86632" lon="7.15695">
        <ele>716.8</ele>
        <time>2016-06-23T11:26:18Z</time>
      </trkpt>
      <trkpt lat="47.86671" lon="7.15594">
        <ele>702.86</ele>
        <time>2016-06-23T11:27:25Z</time>
      </trkpt>
      <trkpt lat="47.86681" lon="7.15545">
        <ele>692.29</ele>
        <time>2016-06-23T11:28:30Z</time>
      </trkpt>
      <trkpt lat="47.86747" lon="7.15576">
        <ele>668.25</ele>
        <time>2016-06-23T11:29:40Z</time>
      </trkpt>
      <trkpt lat="47.86786" lon="7.15608">
        <ele>649.03</ele>
        <time>2016-06-23T11:30:46Z</time>
      </trkpt>
      <trkpt lat="47.8682" lon="7.15677">
        <ele>628.84</ele>
        <time>2016-06-23T11:32:27Z</time>
      </trkpt>
      <trkpt lat="47.86833" lon="7.15718">
        <ele>613.46</ele>
        <time>2016-06-23T11:33:31Z</time>
      </trkpt>
      <trkpt lat="47.86888" lon="7.1576">
        <ele>592.31</ele>
        <time>2016-06-23T11:35:11Z</time>
      </trkpt>
      <trkpt lat="47.86918" lon="7.15747">
        <ele>590.87</ele>
        <time>2016-06-23T11:36:13Z</time>
      </trkpt>
      <trkpt lat="47.86977" lon="7.15719">
        <ele>596.15</ele>
        <time>2016-06-23T11:37:05Z</time>
      </trkpt>
      <trkpt lat="47.86977" lon="7.15625">
        <ele>587.02</ele>
        <time>2016-06-23T11:38:05Z</time>
      </trkpt>
      <trkpt lat="47.86953" lon="7.1554">
        <ele>579.81</ele>
        <time>2016-06-23T11:38:55Z</time>
      </trkpt>
      <trkpt lat="47.86983" lon="7.15582">
        <ele>568.76</ele>
        <time>2016-06-23T11:39:58Z</time>
      </trkpt>
      <trkpt lat="47.86975" lon="7.15533">
        <ele>570.2</ele>
        <time>2016-06-23T11:40:49Z</time>
      </trkpt>
      <trkpt lat="47.87015" lon="7.15596">
        <ele>557.7</ele>
        <time>2016-06-23T11:41:50Z</time>
      </trkpt>
      <trkpt lat="47.87001" lon="7.15516">
        <ele>545.2</ele>
        <time>2016-06-23T11:43:00Z</time>
      </trkpt>
      <trkpt lat="47.87036" lon="7.15558">
        <ele>541.84</ele>
        <time>2016-06-23T11:43:57Z</time>
      </trkpt>
      <trkpt lat="47.87069" lon="7.15642">
        <ele>535.11</ele>
        <time>2016-06-23T11:44:54Z</time>
      </trkpt>
      <trkpt lat="47.87122" lon="7.15723">
        <ele>523.09</ele>
        <time>2016-06-23T11:45:53Z</time>
      </trkpt>
      <trkpt lat="47.8716" lon="7.15769">
        <ele>517.81</ele>
        <time>2016-06-23T11:46:49Z</time>
      </trkpt>
      <trkpt lat="47.87132" lon="7.15669">
        <ele>506.27</ele>
        <time>2016-06-23T11:47:45Z</time>
      </trkpt>
      <trkpt lat="47.87162" lon="7.15714">
        <ele>499.54</ele>
        <time>2016-06-23T11:49:08Z</time>
      </trkpt>
      <trkpt lat="47.87213" lon="7.15776">
        <ele>497.62</ele>
        <time>2016-06-23T11:50:19Z</time>
      </trkpt>
      <trkpt lat="47.87273" lon="7.1581">
        <ele>489.93</ele>
        <time>2016-06-23T11:51:05Z</time>
      </trkpt>
      <trkpt lat="47.87331" lon="7.15827">
        <ele>488.01</ele>
        <time>2016-06-23T11:52:41Z</time>
      </trkpt>
      <trkpt lat="47.87374" lon="7.1582">
        <ele>487.53</ele>
        <time>2016-06-23T11:54:17Z</time>
      </trkpt>
      <trkpt lat="47.87369" lon="7.15823">
        <ele>485.6</ele>
        <time>2016-06-23T11:56:22Z</time>
      </trkpt>
      <trkpt lat="47.87304" lon="7.15795">
        <ele>490.41</ele>
        <time>2016-06-23T11:57:47Z</time>
      </trkpt>
      <trkpt lat="47.87249" lon="7.15756">
        <ele>495.22</ele>
        <time>2016-06-23T11:58:35Z</time>
      </trkpt>
      <trkpt lat="47.87195" lon="7.15711">
        <ele>498.58</ele>
        <time>2016-06-23T11:59:20Z</time>
      </trkpt>
      <trkpt lat="47.87154" lon="7.15671">
        <ele>503.39</ele>
        <time>2016-06-23T11:59:58Z</time>
      </trkpt>
      <trkpt lat="47.87124" lon="7.15615">
        <ele>505.31</ele>
        <time>2016-06-23T12:00:51Z</time>
      </trkpt>
      <trkpt lat="47.87101" lon="7.15548">
        <ele>508.67</ele>
        <time>2016-06-23T12:01:35Z</time>
      </trkpt>
      <trkpt lat="47.87061" lon="7.15472">
        <ele>514.44</ele>
        <time>2016-06-23T12:02:29Z</time>
      </trkpt>
      <trkpt lat="47.8702" lon="7.15406">
        <ele>519.73</ele>
        <time>2016-06-23T12:03:14Z</time>
      </trkpt>
      <trkpt lat="47.86987" lon="7.15344">
        <ele>523.58</ele>
        <time>2016-06-23T12:04:02Z</time>
      </trkpt>
      <trkpt lat="47.86957" lon="7.15296">
        <ele>531.27</ele>
        <time>2016-06-23T12:04:44Z</time>
      </trkpt>
      <trkpt lat="47.86948" lon="7.15215">
        <ele>536.55</ele>
        <time>2016-06-23T12:05:32Z</time>
      </trkpt>
      <trkpt lat="47.86943" lon="7.15135">
        <ele>540.88</ele>
        <time>2016-06-23T12:06:17Z</time>
      </trkpt>
      <trkpt lat="47.86937" lon="7.15085">
        <ele>543.28</ele>
        <time>2016-06-23T12:07:11Z</time>
      </trkpt>
      <trkpt lat="47.86901" lon="7.15082">
        <ele>544.24</ele>
        <time>2016-06-23T12:08:16Z</time>
      </trkpt>
      <trkpt lat="47.86863" lon="7.15056">
        <ele>555.78</ele>
        <time>2016-06-23T12:10:12Z</time>
      </trkpt>
      <trkpt lat="47.8678" lon="7.15045">
        <ele>569.72</ele>
        <time>2016-06-23T12:12:05Z</time>
      </trkpt>
      <trkpt lat="47.86715" lon="7.15025">
        <ele>580.77</ele>
        <time>2016-06-23T12:13:26Z</time>
      </trkpt>
      <trkpt lat="47.86654" lon="7.15038">
        <ele>600.48</ele>
        <time>2016-06-23T12:15:58Z</time>
      </trkpt>
      <trkpt lat="47.86648" lon="7.15042">
        <ele>593.75</ele>
        <time>2016-06-23T12:32:30Z</time>
      </trkpt>
      <trkpt lat="47.8664" lon="7.15043">
        <ele>603.85</ele>
        <time>2016-06-23T12:35:24Z</time>
      </trkpt>
      <trkpt lat="47.86618" lon="7.15094">
        <ele>613.94</ele>
        <time>2016-06-23T12:36:47Z</time>
      </trkpt>
      <trkpt lat="47.86588" lon="7.15118">
        <ele>633.65</ele>
        <time>2016-06-23T12:38:56Z</time>
      </trkpt>
      <trkpt lat="47.86541" lon="7.15054">
        <ele>638.45</ele>
        <time>2016-06-23T12:40:05Z</time>
      </trkpt>
      <trkpt lat="47.865" lon="7.15025">
        <ele>644.7</ele>
        <time>2016-06-23T12:41:00Z</time>
      </trkpt>
      <trkpt lat="47.86453" lon="7.15007">
        <ele>651.91</ele>
        <time>2016-06-23T12:42:03Z</time>
      </trkpt>
      <trkpt lat="47.86396" lon="7.14997">
        <ele>657.68</ele>
        <time>2016-06-23T12:42:54Z</time>
      </trkpt>
      <trkpt lat="47.8635" lon="7.15023">
        <ele>670.18</ele>
        <time>2016-06-23T12:44:05Z</time>
      </trkpt>
      <trkpt lat="47.86317" lon="7.15046">
        <ele>675.94</ele>
        <time>2016-06-23T12:44:50Z</time>
      </trkpt>
      <trkpt lat="47.86323" lon="7.15054">
        <ele>702.38</ele>
        <time>2016-06-23T12:46:49Z</time>
      </trkpt>
      <trkpt lat="47.86399" lon="7.15053">
        <ele>704.78</ele>
        <time>2016-06-23T12:47:01Z</time>
      </trkpt>
      <trkpt lat="47.86348" lon="7.15037">
        <ele>712.47</ele>
        <time>2016-06-23T12:52:37Z</time>
      </trkpt>
      <trkpt lat="47.8632" lon="7.14954">
        <ele>710.55</ele>
        <time>2016-06-23T12:53:30Z</time>
      </trkpt>
      <trkpt lat="47.86301" lon="7.1487">
        <ele>718.24</ele>
        <time>2016-06-23T12:54:54Z</time>
      </trkpt>
      <trkpt lat="47.86244" lon="7.14811">
        <ele>725.93</ele>
        <time>2016-06-23T12:56:18Z</time>
      </trkpt>
      <trkpt lat="47.86198" lon="7.14784">
        <ele>732.66</ele>
        <time>2016-06-23T12:57:17Z</time>
      </trkpt>
      <trkpt lat="47.86242" lon="7.14704">
        <ele>739.39</ele>
        <time>2016-06-23T12:58:53Z</time>
      </trkpt>
      <trkpt lat="47.86248" lon="7.14598">
        <ele>744.2</ele>
        <time>2016-06-23T13:00:00Z</time>
      </trkpt>
      <trkpt lat="47.86294" lon="7.14584">
        <ele>749.97</ele>
        <time>2016-06-23T13:01:21Z</time>
      </trkpt>
      <trkpt lat="47.8626" lon="7.14569">
        <ele>747.08</ele>
        <time>2016-06-23T13:02:56Z</time>
      </trkpt>
      <trkpt lat="47.86243" lon="7.14664">
        <ele>740.35</ele>
        <time>2016-06-23T13:04:02Z</time>
      </trkpt>
      <trkpt lat="47.86192" lon="7.1469">
        <ele>742.76</ele>
        <time>2016-06-23T13:05:03Z</time>
      </trkpt>
      <trkpt lat="47.86147" lon="7.14761">
        <ele>749</ele>
        <time>2016-06-23T13:06:16Z</time>
      </trkpt>
      <trkpt lat="47.86181" lon="7.14834">
        <ele>757.66</ele>
        <time>2016-06-23T13:07:27Z</time>
      </trkpt>
      <trkpt lat="47.86201" lon="7.14901">
        <ele>767.75</ele>
        <time>2016-06-23T13:08:54Z</time>
      </trkpt>
      <trkpt lat="47.86198" lon="7.14976">
        <ele>771.6</ele>
        <time>2016-06-23T13:10:59Z</time>
      </trkpt>
      <trkpt lat="47.86212" lon="7.15054">
        <ele>768.23</ele>
        <time>2016-06-23T13:12:03Z</time>
      </trkpt>
      <trkpt lat="47.86226" lon="7.15119">
        <ele>770.15</ele>
        <time>2016-06-23T13:12:57Z</time>
      </trkpt>
      <trkpt lat="47.8627" lon="7.15204">
        <ele>777.84</ele>
        <time>2016-06-23T13:14:24Z</time>
      </trkpt>
      <trkpt lat="47.86261" lon="7.15237">
        <ele>788.42</ele>
        <time>2016-06-23T13:16:34Z</time>
      </trkpt>
      <trkpt lat="47.86256" lon="7.15333">
        <ele>803.8</ele>
        <time>2016-06-23T13:18:38Z</time>
      </trkpt>
      <trkpt lat="47.86259" lon="7.15338">
        <ele>812.93</ele>
        <time>2016-06-23T13:42:52Z</time>
      </trkpt>
      <trkpt lat="47.86241" lon="7.15383">
        <ele>828.79</ele>
        <time>2016-06-23T13:46:21Z</time>
      </trkpt>
      <trkpt lat="47.86214" lon="7.15373">
        <ele>843.21</ele>
        <time>2016-06-23T13:48:17Z</time>
      </trkpt>
      <trkpt lat="47.8619" lon="7.15402">
        <ele>853.79</ele>
        <time>2016-06-23T13:49:57Z</time>
      </trkpt>
      <trkpt lat="47.86189" lon="7.1546">
        <ele>867.25</ele>
        <time>2016-06-23T13:51:51Z</time>
      </trkpt>
      <trkpt lat="47.86181" lon="7.15549">
        <ele>880.22</ele>
        <time>2016-06-23T13:53:54Z</time>
      </trkpt>
      <trkpt lat="47.86137" lon="7.15573">
        <ele>899.93</ele>
        <time>2016-06-23T13:56:37Z</time>
      </trkpt>
      <trkpt lat="47.86133" lon="7.15689">
        <ele>912.91</ele>
        <time>2016-06-23T13:58:17Z</time>
      </trkpt>
      <trkpt lat="47.86147" lon="7.15732">
        <ele>921.56</ele>
        <time>2016-06-23T14:01:55Z</time>
      </trkpt>
      <trkpt lat="47.86137" lon="7.15682">
        <ele>914.83</ele>
        <time>2016-06-23T14:06:16Z</time>
      </trkpt>
      <trkpt lat="47.86084" lon="7.1563">
        <ele>910.99</ele>
        <time>2016-06-23T14:07:12Z</time>
      </trkpt>
      <trkpt lat="47.86061" lon="7.15549">
        <ele>905.7</ele>
        <time>2016-06-23T14:08:07Z</time>
      </trkpt>
      <trkpt lat="47.86013" lon="7.15475">
        <ele>897.05</ele>
        <time>2016-06-23T14:09:10Z</time>
      </trkpt>
      <trkpt lat="47.86014" lon="7.15549">
        <ele>899.45</ele>
        <time>2016-06-23T14:09:56Z</time>
      </trkpt>
      <trkpt lat="47.86013" lon="7.15639">
        <ele>906.66</ele>
        <time>2016-06-23T14:11:34Z</time>
      </trkpt>
      <trkpt lat="47.86014" lon="7.15719">
        <ele>910.51</ele>
        <time>2016-06-23T14:12:26Z</time>
      </trkpt>
      <trkpt lat="47.8602" lon="7.15783">
        <ele>921.08</ele>
        <time>2016-06-23T14:14:05Z</time>
      </trkpt>
      <trkpt lat="47.86059" lon="7.15794">
        <ele>928.77</ele>
        <time>2016-06-23T14:16:22Z</time>
      </trkpt>
      <trkpt lat="47.8602" lon="7.15779">
        <ele>919.16</ele>
        <time>2016-06-23T14:17:24Z</time>
      </trkpt>
      <trkpt lat="47.86001" lon="7.15848">
        <ele>924.45</ele>
        <time>2016-06-23T14:18:13Z</time>
      </trkpt>
      <trkpt lat="47.85978" lon="7.1592">
        <ele>923.96</ele>
        <time>2016-06-23T14:19:04Z</time>
      </trkpt>
      <trkpt lat="47.85961" lon="7.16007">
        <ele>927.33</ele>
        <time>2016-06-23T14:21:44Z</time>
      </trkpt>
      <trkpt lat="47.85957" lon="7.16089">
        <ele>931.17</ele>
        <time>2016-06-23T14:22:51Z</time>
      </trkpt>
      <trkpt lat="47.85975" lon="7.16182">
        <ele>939.83</ele>
        <time>2016-06-23T14:23:57Z</time>
      </trkpt>
      <trkpt lat="47.85983" lon="7.16236">
        <ele>941.75</ele>
        <time>2016-06-23T14:24:57Z</time>
      </trkpt>
      <trkpt lat="47.85951" lon="7.16289">
        <ele>933.1</ele>
        <time>2016-06-23T14:26:11Z</time>
      </trkpt>
      <trkpt lat="47.85891" lon="7.16264">
        <ele>918.68</ele>
        <time>2016-06-23T14:27:13Z</time>
      </trkpt>
      <trkpt lat="47.85829" lon="7.16205">
        <ele>904.26</ele>
        <time>2016-06-23T14:28:40Z</time>
      </trkpt>
      <trkpt lat="47.85777" lon="7.1617">
        <ele>894.64</ele>
        <time>2016-06-23T14:29:27Z</time>
      </trkpt>
      <trkpt lat="47.85733" lon="7.16158">
        <ele>884.55</ele>
        <time>2016-06-23T14:30:31Z</time>
      </trkpt>
      <trkpt lat="47.85693" lon="7.16161">
        <ele>874.46</ele>
        <time>2016-06-23T14:31:30Z</time>
      </trkpt>
      <trkpt lat="47.85672" lon="7.16198">
        <ele>859.08</ele>
        <time>2016-06-23T14:32:22Z</time>
      </trkpt>
      <trkpt lat="47.85623" lon="7.16214">
        <ele>845.14</ele>
        <time>2016-06-23T14:33:22Z</time>
      </trkpt>
      <trkpt lat="47.85595" lon="7.16251">
        <ele>831.68</ele>
        <time>2016-06-23T14:34:31Z</time>
      </trkpt>
      <trkpt lat="47.85569" lon="7.16202">
        <ele>820.14</ele>
        <time>2016-06-23T14:35:30Z</time>
      </trkpt>
      <trkpt lat="47.85514" lon="7.16138">
        <ele>803.8</ele>
        <time>2016-06-23T14:36:47Z</time>
      </trkpt>
      <trkpt lat="47.85495" lon="7.161">
        <ele>797.07</ele>
        <time>2016-06-23T14:37:52Z</time>
      </trkpt>
      <trkpt lat="47.85495" lon="7.16001">
        <ele>786.5</ele>
        <time>2016-06-23T14:39:27Z</time>
      </trkpt>
      <trkpt lat="47.85476" lon="7.15942">
        <ele>774</ele>
        <time>2016-06-23T14:41:08Z</time>
      </trkpt>
      <trkpt lat="47.85449" lon="7.15872">
        <ele>768.71</ele>
        <time>2016-06-23T14:42:28Z</time>
      </trkpt>
      <trkpt lat="47.85434" lon="7.15925">
        <ele>757.18</ele>
        <time>2016-06-23T14:43:28Z</time>
      </trkpt>
      <trkpt lat="47.85381" lon="7.15966">
        <ele>754.29</ele>
        <time>2016-06-23T14:44:08Z</time>
      </trkpt>
      <trkpt lat="47.8534" lon="7.15991">
        <ele>743.24</ele>
        <time>2016-06-23T14:44:56Z</time>
      </trkpt>
      <trkpt lat="47.85286" lon="7.1604">
        <ele>729.78</ele>
        <time>2016-06-23T14:45:54Z</time>
      </trkpt>
      <trkpt lat="47.85219" lon="7.16121">
        <ele>712.95</ele>
        <time>2016-06-23T14:46:57Z</time>
      </trkpt>
      <trkpt lat="47.85173" lon="7.16204">
        <ele>703.34</ele>
        <time>2016-06-23T14:48:00Z</time>
      </trkpt>
      <trkpt lat="47.85099" lon="7.16241">
        <ele>680.27</ele>
        <time>2016-06-23T14:49:11Z</time>
      </trkpt>
      <trkpt lat="47.85027" lon="7.1633">
        <ele>652.39</ele>
        <time>2016-06-23T14:50:36Z</time>
      </trkpt>
      <trkpt lat="47.84952" lon="7.16379">
        <ele>647.1</ele>
        <time>2016-06-23T14:51:34Z</time>
      </trkpt>
      <trkpt lat="47.84915" lon="7.16445">
        <ele>635.09</ele>
        <time>2016-06-23T14:52:16Z</time>
      </trkpt>
      <trkpt lat="47.84893" lon="7.16531">
        <ele>628.84</ele>
        <time>2016-06-23T14:52:59Z</time>
      </trkpt>
      <trkpt lat="47.84849" lon="7.16577">
        <ele>612.98</ele>
        <time>2016-06-23T14:53:47Z</time>
      </trkpt>
      <trkpt lat="47.84821" lon="7.16669">
        <ele>603.36</ele>
        <time>2016-06-23T14:54:43Z</time>
      </trkpt>
      <trkpt lat="47.84781" lon="7.1675">
        <ele>593.75</ele>
        <time>2016-06-23T14:55:27Z</time>
      </trkpt>
      <trkpt lat="47.84735" lon="7.16805">
        <ele>579.33</ele>
        <time>2016-06-23T14:56:20Z</time>
      </trkpt>
      <trkpt lat="47.84678" lon="7.16834">
        <ele>570.68</ele>
        <time>2016-06-23T14:57:06Z</time>
      </trkpt>
      <trkpt lat="47.84651" lon="7.16828">
        <ele>561.55</ele>
        <time>2016-06-23T15:16:20Z</time>
      </trkpt>
      <trkpt lat="47.84649" lon="7.16823">
        <ele>555.3</ele>
        <time>2016-06-23T15:27:29Z</time>
      </trkpt>
      <trkpt lat="47.84651" lon="7.16851">
        <ele>550.97</ele>
        <time>2016-06-23T15:36:50Z</time>
      </trkpt>
      <trkpt lat="47.84653" lon="7.16832">
        <ele>549.53</ele>
        <time>2016-06-23T15:44:48Z</time>
      </trkpt>
      <trkpt lat="47.84655" lon="7.16829">
        <ele>549.53</ele>
        <time>2016-06-23T15:46:01Z</time>
      </trkpt>
      <trkpt lat="47.84652" lon="7.16812">
        <ele>549.05</ele>
        <time>2016-06-23T15:46:11Z</time>
      </trkpt>
      <trkpt lat="47.84673" lon="7.16881">
        <ele>546.65</ele>
        <time>2016-06-23T15:47:05Z</time>
      </trkpt>
    </trkseg>
  </trk>
</gpx>